sensor_id;sensor_type;location;lat;lon;timestamp;P1;durP1;ratioP1;P2;durP2;ratioP2
5553;SDS011;2800;49.528;8.666;2023-04-24T00:01:23;4.73;;;2.07;;
5553;SDS011;2800;49.528;8.666;2023-04-24T00:03:49;5.30;;;2.00;;
5553;SDS011;2800;49.528;8.666;2023-04-24T00:06:14;5.33;;;1.53;;
5553;SDS011;2800;49.528;8.666;2023-04-24T00:08:41;4.37;;;2.00;;
5553;SDS011;2800;49.528;8.666;2023-04-24T00:11:07;4.90;;;2.00;;
5553;SDS011;2800;49.528;8.666;2023-04-24T00:13:34;4.63;;;1.93;;
5553;SDS011;2800;49.528;8.666;2023-04-24T00:16:00;5.13;;;1.80;;
5553;SDS011;2800;49.528;8.666;2023-04-24T00:18:25;7.97;;;2.07;;
5553;SDS011;2800;49.528;8.666;2023-04-24T00:20:51;5.27;;;2.10;;
5553;SDS011;2800;49.528;8.666;2023-04-24T00:23:16;7.37;;;1.80;;
5553;SDS011;2800;49.528;8.666;2023-04-24T00:25:42;6.70;;;2.00;;
5553;SDS011;2800;49.528;8.666;2023-04-24T00:28:07;4.70;;;1.90;;
5553;SDS011;2800;49.528;8.666;2023-04-24T00:30:33;4.83;;;1.90;;
5553;SDS011;2800;49.528;8.666;2023-04-24T00:32:58;7.43;;;1.90;;
5553;SDS011;2800;49.528;8.666;2023-04-24T00:35:24;5.83;;;2.00;;
5553;SDS011;2800;49.528;8.666;2023-04-24T00:37:49;5.53;;;2.07;;
5553;SDS011;2800;49.528;8.666;2023-04-24T00:40:15;4.33;;;1.60;;
5553;SDS011;2800;49.528;8.666;2023-04-24T00:42:41;4.40;;;1.93;;
5553;SDS011;2800;49.528;8.666;2023-04-24T00:45:08;4.70;;;2.00;;
5553;SDS011;2800;49.528;8.666;2023-04-24T00:47:33;3.90;;;1.63;;
5553;SDS011;2800;49.528;8.666;2023-04-24T00:50:03;4.50;;;2.10;;
5553;SDS011;2800;49.528;8.666;2023-04-24T00:52:30;6.40;;;2.00;;
5553;SDS011;2800;49.528;8.666;2023-04-24T00:54:56;7.10;;;1.70;;
5553;SDS011;2800;49.528;8.666;2023-04-24T00:57:22;4.50;;;1.77;;
5553;SDS011;2800;49.528;8.666;2023-04-24T00:59:48;4.83;;;2.07;;
5553;SDS011;2800;49.528;8.666;2023-04-24T01:02:14;5.13;;;2.03;;
5553;SDS011;2800;49.528;8.666;2023-04-24T01:04:40;8.80;;;2.00;;
5553;SDS011;2800;49.528;8.666;2023-04-24T01:07:06;5.70;;;2.10;;
5553;SDS011;2800;49.528;8.666;2023-04-24T01:09:35;6.63;;;2.00;;
5553;SDS011;2800;49.528;8.666;2023-04-24T01:12:06;5.80;;;2.07;;
5553;SDS011;2800;49.528;8.666;2023-04-24T01:14:32;4.50;;;1.83;;
5553;SDS011;2800;49.528;8.666;2023-04-24T01:16:58;6.20;;;2.37;;
5553;SDS011;2800;49.528;8.666;2023-04-24T01:19:24;7.33;;;1.93;;
5553;SDS011;2800;49.528;8.666;2023-04-24T01:21:51;5.90;;;2.20;;
5553;SDS011;2800;49.528;8.666;2023-04-24T01:24:19;5.73;;;2.17;;
5553;SDS011;2800;49.528;8.666;2023-04-24T01:26:45;5.93;;;2.00;;
5553;SDS011;2800;49.528;8.666;2023-04-24T01:29:11;4.90;;;1.80;;
5553;SDS011;2800;49.528;8.666;2023-04-24T01:31:37;6.87;;;2.40;;
5553;SDS011;2800;49.528;8.666;2023-04-24T01:34:03;5.00;;;2.03;;
5553;SDS011;2800;49.528;8.666;2023-04-24T01:36:29;4.33;;;2.13;;
5553;SDS011;2800;49.528;8.666;2023-04-24T01:38:56;5.20;;;2.00;;
5553;SDS011;2800;49.528;8.666;2023-04-24T01:41:22;4.93;;;1.90;;
5553;SDS011;2800;49.528;8.666;2023-04-24T01:43:48;4.90;;;1.97;;
5553;SDS011;2800;49.528;8.666;2023-04-24T01:46:14;4.70;;;1.77;;
5553;SDS011;2800;49.528;8.666;2023-04-24T01:48:40;6.73;;;2.10;;
5553;SDS011;2800;49.528;8.666;2023-04-24T01:51:06;4.80;;;2.03;;
5553;SDS011;2800;49.528;8.666;2023-04-24T01:53:32;5.07;;;2.03;;
5553;SDS011;2800;49.528;8.666;2023-04-24T01:55:57;4.90;;;2.07;;
5553;SDS011;2800;49.528;8.666;2023-04-24T01:58:23;6.63;;;2.10;;
5553;SDS011;2800;49.528;8.666;2023-04-24T02:00:49;5.03;;;2.20;;
5553;SDS011;2800;49.528;8.666;2023-04-24T02:03:15;5.60;;;1.80;;
5553;SDS011;2800;49.528;8.666;2023-04-24T02:05:43;5.43;;;2.03;;
5553;SDS011;2800;49.528;8.666;2023-04-24T02:08:09;8.97;;;2.40;;
5553;SDS011;2800;49.528;8.666;2023-04-24T02:10:34;6.13;;;2.00;;
5553;SDS011;2800;49.528;8.666;2023-04-24T02:13:00;4.27;;;1.97;;
5553;SDS011;2800;49.528;8.666;2023-04-24T02:15:26;5.07;;;2.13;;
5553;SDS011;2800;49.528;8.666;2023-04-24T02:17:51;8.97;;;2.33;;
5553;SDS011;2800;49.528;8.666;2023-04-24T02:20:17;4.57;;;1.73;;
5553;SDS011;2800;49.528;8.666;2023-04-24T02:22:42;6.53;;;2.23;;
5553;SDS011;2800;49.528;8.666;2023-04-24T02:25:08;7.23;;;2.13;;
5553;SDS011;2800;49.528;8.666;2023-04-24T02:27:34;4.50;;;1.77;;
5553;SDS011;2800;49.528;8.666;2023-04-24T02:29:59;6.20;;;2.30;;
5553;SDS011;2800;49.528;8.666;2023-04-24T02:32:25;7.03;;;2.03;;
5553;SDS011;2800;49.528;8.666;2023-04-24T02:34:51;4.27;;;1.70;;
5553;SDS011;2800;49.528;8.666;2023-04-24T02:37:16;4.33;;;1.90;;
5553;SDS011;2800;49.528;8.666;2023-04-24T02:39:42;7.37;;;2.40;;
5553;SDS011;2800;49.528;8.666;2023-04-24T02:42:07;5.30;;;1.90;;
5553;SDS011;2800;49.528;8.666;2023-04-24T02:44:33;4.67;;;1.87;;
5553;SDS011;2800;49.528;8.666;2023-04-24T02:46:58;5.07;;;2.00;;
5553;SDS011;2800;49.528;8.666;2023-04-24T02:49:24;10.40;;;2.30;;
5553;SDS011;2800;49.528;8.666;2023-04-24T02:51:50;7.53;;;2.33;;
5553;SDS011;2800;49.528;8.666;2023-04-24T02:54:16;5.80;;;2.10;;
5553;SDS011;2800;49.528;8.666;2023-04-24T02:56:41;5.40;;;2.30;;
5553;SDS011;2800;49.528;8.666;2023-04-24T02:59:07;5.60;;;2.07;;
5553;SDS011;2800;49.528;8.666;2023-04-24T03:01:32;6.60;;;2.43;;
5553;SDS011;2800;49.528;8.666;2023-04-24T03:03:58;7.63;;;2.43;;
5553;SDS011;2800;49.528;8.666;2023-04-24T03:06:24;6.00;;;2.60;;
5553;SDS011;2800;49.528;8.666;2023-04-24T03:08:49;7.90;;;2.80;;
5553;SDS011;2800;49.528;8.666;2023-04-24T03:11:15;9.83;;;3.03;;
5553;SDS011;2800;49.528;8.666;2023-04-24T03:13:40;6.40;;;2.70;;
5553;SDS011;2800;49.528;8.666;2023-04-24T03:16:06;5.90;;;2.90;;
5553;SDS011;2800;49.528;8.666;2023-04-24T03:18:31;5.57;;;2.30;;
5553;SDS011;2800;49.528;8.666;2023-04-24T03:20:57;6.80;;;2.83;;
5553;SDS011;2800;49.528;8.666;2023-04-24T03:23:22;5.47;;;2.57;;
5553;SDS011;2800;49.528;8.666;2023-04-24T03:25:48;5.53;;;2.80;;
5553;SDS011;2800;49.528;8.666;2023-04-24T03:28:14;6.70;;;3.03;;
5553;SDS011;2800;49.528;8.666;2023-04-24T03:30:40;7.07;;;2.57;;
5553;SDS011;2800;49.528;8.666;2023-04-24T03:33:05;7.20;;;3.10;;
5553;SDS011;2800;49.528;8.666;2023-04-24T03:35:31;11.67;;;3.63;;
5553;SDS011;2800;49.528;8.666;2023-04-24T03:37:56;6.80;;;3.33;;
5553;SDS011;2800;49.528;8.666;2023-04-24T03:40:22;7.17;;;3.40;;
5553;SDS011;2800;49.528;8.666;2023-04-24T03:42:47;6.90;;;3.13;;
5553;SDS011;2800;49.528;8.666;2023-04-24T03:45:13;7.40;;;3.37;;
5553;SDS011;2800;49.528;8.666;2023-04-24T03:47:38;9.60;;;3.07;;
5553;SDS011;2800;49.528;8.666;2023-04-24T03:50:04;10.23;;;3.30;;
5553;SDS011;2800;49.528;8.666;2023-04-24T03:52:30;10.63;;;3.30;;
5553;SDS011;2800;49.528;8.666;2023-04-24T03:54:56;6.50;;;3.90;;
5553;SDS011;2800;49.528;8.666;2023-04-24T03:57:21;8.63;;;3.77;;
5553;SDS011;2800;49.528;8.666;2023-04-24T03:59:47;6.60;;;3.40;;
5553;SDS011;2800;49.528;8.666;2023-04-24T04:02:12;8.40;;;3.63;;
5553;SDS011;2800;49.528;8.666;2023-04-24T04:04:38;5.60;;;3.30;;
5553;SDS011;2800;49.528;8.666;2023-04-24T04:07:03;8.60;;;3.17;;
5553;SDS011;2800;49.528;8.666;2023-04-24T04:09:30;6.17;;;3.17;;
5553;SDS011;2800;49.528;8.666;2023-04-24T04:11:56;9.97;;;4.17;;
5553;SDS011;2800;49.528;8.666;2023-04-24T04:14:21;8.23;;;3.40;;
5553;SDS011;2800;49.528;8.666;2023-04-24T04:16:48;9.23;;;3.80;;
5553;SDS011;2800;49.528;8.666;2023-04-24T04:19:13;6.53;;;3.93;;
5553;SDS011;2800;49.528;8.666;2023-04-24T04:21:39;6.13;;;3.20;;
5553;SDS011;2800;49.528;8.666;2023-04-24T04:24:04;6.73;;;3.60;;
5553;SDS011;2800;49.528;8.666;2023-04-24T04:26:30;7.20;;;3.83;;
5553;SDS011;2800;49.528;8.666;2023-04-24T04:28:57;7.20;;;3.70;;
5553;SDS011;2800;49.528;8.666;2023-04-24T04:31:23;6.03;;;3.70;;
5553;SDS011;2800;49.528;8.666;2023-04-24T04:33:49;9.03;;;4.00;;
5553;SDS011;2800;49.528;8.666;2023-04-24T04:36:15;6.60;;;3.80;;
5553;SDS011;2800;49.528;8.666;2023-04-24T04:38:42;8.33;;;4.20;;
5553;SDS011;2800;49.528;8.666;2023-04-24T04:41:07;6.53;;;3.63;;
5553;SDS011;2800;49.528;8.666;2023-04-24T04:43:33;7.00;;;3.70;;
5553;SDS011;2800;49.528;8.666;2023-04-24T04:45:59;9.13;;;3.93;;
5553;SDS011;2800;49.528;8.666;2023-04-24T04:48:25;7.73;;;3.93;;
5553;SDS011;2800;49.528;8.666;2023-04-24T04:50:52;9.47;;;3.90;;
5553;SDS011;2800;49.528;8.666;2023-04-24T04:53:17;7.90;;;4.13;;
5553;SDS011;2800;49.528;8.666;2023-04-24T04:55:43;6.80;;;4.10;;
5553;SDS011;2800;49.528;8.666;2023-04-24T04:58:08;6.47;;;3.97;;
5553;SDS011;2800;49.528;8.666;2023-04-24T05:00:34;6.00;;;3.80;;
5553;SDS011;2800;49.528;8.666;2023-04-24T05:03:02;6.30;;;3.90;;
5553;SDS011;2800;49.528;8.666;2023-04-24T05:05:28;6.80;;;4.13;;
5553;SDS011;2800;49.528;8.666;2023-04-24T05:07:54;6.63;;;4.07;;
5553;SDS011;2800;49.528;8.666;2023-04-24T05:10:19;7.10;;;3.80;;
5553;SDS011;2800;49.528;8.666;2023-04-24T05:12:45;7.37;;;4.17;;
5553;SDS011;2800;49.528;8.666;2023-04-24T05:15:10;9.13;;;4.07;;
5553;SDS011;2800;49.528;8.666;2023-04-24T05:17:36;6.17;;;3.73;;
5553;SDS011;2800;49.528;8.666;2023-04-24T05:20:02;8.33;;;4.50;;
5553;SDS011;2800;49.528;8.666;2023-04-24T05:22:30;6.77;;;4.27;;
5553;SDS011;2800;49.528;8.666;2023-04-24T05:24:56;7.50;;;4.03;;
5553;SDS011;2800;49.528;8.666;2023-04-24T05:27:22;8.90;;;4.60;;
5553;SDS011;2800;49.528;8.666;2023-04-24T05:29:47;7.00;;;4.30;;
5553;SDS011;2800;49.528;8.666;2023-04-24T05:32:13;7.57;;;4.30;;
5553;SDS011;2800;49.528;8.666;2023-04-24T05:34:38;6.50;;;4.07;;
5553;SDS011;2800;49.528;8.666;2023-04-24T05:37:04;6.53;;;4.27;;
5553;SDS011;2800;49.528;8.666;2023-04-24T05:39:33;7.00;;;4.47;;
5553;SDS011;2800;49.528;8.666;2023-04-24T05:41:59;8.50;;;5.20;;
5553;SDS011;2800;49.528;8.666;2023-04-24T05:44:26;8.20;;;4.50;;
5553;SDS011;2800;49.528;8.666;2023-04-24T05:46:51;7.60;;;4.23;;
5553;SDS011;2800;49.528;8.666;2023-04-24T05:49:17;7.27;;;4.40;;
5553;SDS011;2800;49.528;8.666;2023-04-24T05:51:42;9.37;;;6.13;;
5553;SDS011;2800;49.528;8.666;2023-04-24T05:54:08;6.90;;;4.77;;
5553;SDS011;2800;49.528;8.666;2023-04-24T05:56:33;9.00;;;4.97;;
5553;SDS011;2800;49.528;8.666;2023-04-24T05:58:59;10.17;;;4.50;;
5553;SDS011;2800;49.528;8.666;2023-04-24T06:01:25;7.80;;;5.03;;
5553;SDS011;2800;49.528;8.666;2023-04-24T06:03:50;7.87;;;5.23;;
5553;SDS011;2800;49.528;8.666;2023-04-24T06:06:16;8.80;;;5.30;;
5553;SDS011;2800;49.528;8.666;2023-04-24T06:08:41;15.80;;;5.27;;
5553;SDS011;2800;49.528;8.666;2023-04-24T06:11:09;8.40;;;6.07;;
5553;SDS011;2800;49.528;8.666;2023-04-24T06:13:34;9.77;;;5.47;;
5553;SDS011;2800;49.528;8.666;2023-04-24T06:16:00;10.27;;;5.07;;
5553;SDS011;2800;49.528;8.666;2023-04-24T06:18:25;7.90;;;5.30;;
5553;SDS011;2800;49.528;8.666;2023-04-24T06:20:51;8.20;;;5.10;;
5553;SDS011;2800;49.528;8.666;2023-04-24T06:23:16;9.23;;;6.10;;
5553;SDS011;2800;49.528;8.666;2023-04-24T06:25:42;8.93;;;5.20;;
5553;SDS011;2800;49.528;8.666;2023-04-24T06:28:07;10.00;;;5.73;;
5553;SDS011;2800;49.528;8.666;2023-04-24T06:30:33;11.23;;;6.20;;
5553;SDS011;2800;49.528;8.666;2023-04-24T06:32:58;8.47;;;5.97;;
5553;SDS011;2800;49.528;8.666;2023-04-24T06:35:24;8.20;;;5.50;;
5553;SDS011;2800;49.528;8.666;2023-04-24T06:37:50;9.90;;;6.37;;
5553;SDS011;2800;49.528;8.666;2023-04-24T06:40:16;9.50;;;6.80;;
5553;SDS011;2800;49.528;8.666;2023-04-24T06:42:43;9.23;;;6.33;;
5553;SDS011;2800;49.528;8.666;2023-04-24T06:45:09;8.17;;;6.30;;
5553;SDS011;2800;49.528;8.666;2023-04-24T06:47:34;7.73;;;5.90;;
5553;SDS011;2800;49.528;8.666;2023-04-24T06:50:00;8.80;;;6.33;;
5553;SDS011;2800;49.528;8.666;2023-04-24T06:52:26;9.60;;;6.47;;
5553;SDS011;2800;49.528;8.666;2023-04-24T06:54:51;9.23;;;5.50;;
5553;SDS011;2800;49.528;8.666;2023-04-24T06:57:17;9.53;;;6.73;;
5553;SDS011;2800;49.528;8.666;2023-04-24T06:59:43;9.90;;;6.00;;
5553;SDS011;2800;49.528;8.666;2023-04-24T07:02:08;8.00;;;5.47;;
5553;SDS011;2800;49.528;8.666;2023-04-24T07:04:34;8.43;;;4.70;;
5553;SDS011;2800;49.528;8.666;2023-04-24T07:06:59;8.27;;;4.60;;
5553;SDS011;2800;49.528;8.666;2023-04-24T07:09:26;7.43;;;4.33;;
5553;SDS011;2800;49.528;8.666;2023-04-24T07:11:52;9.43;;;3.33;;
5553;SDS011;2800;49.528;8.666;2023-04-24T07:14:18;7.90;;;3.70;;
5553;SDS011;2800;49.528;8.666;2023-04-24T07:16:44;6.20;;;3.10;;
5553;SDS011;2800;49.528;8.666;2023-04-24T07:19:10;5.97;;;3.40;;
5553;SDS011;2800;49.528;8.666;2023-04-24T07:21:35;5.20;;;2.90;;
5553;SDS011;2800;49.528;8.666;2023-04-24T07:24:01;10.10;;;3.30;;
5553;SDS011;2800;49.528;8.666;2023-04-24T07:26:27;6.33;;;3.10;;
5553;SDS011;2800;49.528;8.666;2023-04-24T07:28:54;4.93;;;2.50;;
5553;SDS011;2800;49.528;8.666;2023-04-24T07:31:20;5.23;;;2.67;;
5553;SDS011;2800;49.528;8.666;2023-04-24T07:33:46;4.50;;;2.30;;
5553;SDS011;2800;49.528;8.666;2023-04-24T07:36:12;5.70;;;2.57;;
5553;SDS011;2800;49.528;8.666;2023-04-24T07:38:44;5.00;;;2.43;;
5553;SDS011;2800;49.528;8.666;2023-04-24T07:41:10;4.67;;;2.50;;
5553;SDS011;2800;49.528;8.666;2023-04-24T07:43:35;5.07;;;2.50;;
5553;SDS011;2800;49.528;8.666;2023-04-24T07:46:01;5.27;;;2.50;;
5553;SDS011;2800;49.528;8.666;2023-04-24T07:48:27;5.90;;;2.60;;
5553;SDS011;2800;49.528;8.666;2023-04-24T07:50:52;5.63;;;2.80;;
5553;SDS011;2800;49.528;8.666;2023-04-24T07:53:18;6.23;;;2.60;;
5553;SDS011;2800;49.528;8.666;2023-04-24T07:55:44;6.23;;;2.80;;
5553;SDS011;2800;49.528;8.666;2023-04-24T07:58:09;6.43;;;2.90;;
5553;SDS011;2800;49.528;8.666;2023-04-24T08:00:35;5.97;;;2.97;;
5553;SDS011;2800;49.528;8.666;2023-04-24T08:03:01;6.97;;;3.17;;
5553;SDS011;2800;49.528;8.666;2023-04-24T08:05:26;5.27;;;3.00;;
5553;SDS011;2800;49.528;8.666;2023-04-24T08:07:53;5.80;;;3.10;;
5553;SDS011;2800;49.528;8.666;2023-04-24T08:10:20;4.80;;;2.63;;
5553;SDS011;2800;49.528;8.666;2023-04-24T08:12:47;6.83;;;2.90;;
5553;SDS011;2800;49.528;8.666;2023-04-24T08:15:12;5.37;;;3.10;;
5553;SDS011;2800;49.528;8.666;2023-04-24T08:17:38;4.70;;;2.83;;
5553;SDS011;2800;49.528;8.666;2023-04-24T08:20:04;7.47;;;2.90;;
5553;SDS011;2800;49.528;8.666;2023-04-24T08:22:31;4.90;;;2.80;;
5553;SDS011;2800;49.528;8.666;2023-04-24T08:24:56;6.40;;;2.70;;
5553;SDS011;2800;49.528;8.666;2023-04-24T08:27:24;5.13;;;3.00;;
5553;SDS011;2800;49.528;8.666;2023-04-24T08:29:52;5.50;;;3.37;;
5553;SDS011;2800;49.528;8.666;2023-04-24T08:32:18;5.50;;;3.20;;
5553;SDS011;2800;49.528;8.666;2023-04-24T08:34:44;5.93;;;2.90;;
5553;SDS011;2800;49.528;8.666;2023-04-24T08:37:10;4.80;;;2.60;;
5553;SDS011;2800;49.528;8.666;2023-04-24T08:39:36;5.00;;;2.97;;
5553;SDS011;2800;49.528;8.666;2023-04-24T08:42:02;6.40;;;2.77;;
5553;SDS011;2800;49.528;8.666;2023-04-24T08:44:32;5.77;;;2.70;;
5553;SDS011;2800;49.528;8.666;2023-04-24T08:46:58;6.10;;;3.10;;
5553;SDS011;2800;49.528;8.666;2023-04-24T08:49:25;6.10;;;3.07;;
5553;SDS011;2800;49.528;8.666;2023-04-24T08:51:53;7.20;;;3.47;;
5553;SDS011;2800;49.528;8.666;2023-04-24T08:54:18;6.60;;;3.07;;
5553;SDS011;2800;49.528;8.666;2023-04-24T08:56:44;7.60;;;3.40;;
5553;SDS011;2800;49.528;8.666;2023-04-24T08:59:12;9.20;;;3.63;;
5553;SDS011;2800;49.528;8.666;2023-04-24T09:01:39;6.27;;;3.70;;
5553;SDS011;2800;49.528;8.666;2023-04-24T09:04:05;6.83;;;3.97;;
5553;SDS011;2800;49.528;8.666;2023-04-24T09:06:33;6.03;;;3.37;;
5553;SDS011;2800;49.528;8.666;2023-04-24T09:09:00;8.97;;;3.50;;
5553;SDS011;2800;49.528;8.666;2023-04-24T09:11:26;5.90;;;3.27;;
5553;SDS011;2800;49.528;8.666;2023-04-24T09:13:53;6.63;;;3.30;;
5553;SDS011;2800;49.528;8.666;2023-04-24T09:16:19;6.77;;;3.43;;
5553;SDS011;2800;49.528;8.666;2023-04-24T09:18:45;5.83;;;3.77;;
5553;SDS011;2800;49.528;8.666;2023-04-24T09:21:10;7.50;;;3.80;;
5553;SDS011;2800;49.528;8.666;2023-04-24T09:23:36;7.43;;;3.10;;
5553;SDS011;2800;49.528;8.666;2023-04-24T09:26:03;6.27;;;3.17;;
5553;SDS011;2800;49.528;8.666;2023-04-24T09:28:35;5.40;;;3.20;;
5553;SDS011;2800;49.528;8.666;2023-04-24T09:31:03;5.23;;;3.30;;
5553;SDS011;2800;49.528;8.666;2023-04-24T09:33:30;6.10;;;3.20;;
5553;SDS011;2800;49.528;8.666;2023-04-24T09:35:56;7.10;;;3.20;;
5553;SDS011;2800;49.528;8.666;2023-04-24T09:38:31;5.60;;;3.27;;
5553;SDS011;2800;49.528;8.666;2023-04-24T09:41:04;6.33;;;3.10;;
5553;SDS011;2800;49.528;8.666;2023-04-24T09:43:31;5.43;;;3.10;;
5553;SDS011;2800;49.528;8.666;2023-04-24T09:45:58;5.53;;;3.50;;
5553;SDS011;2800;49.528;8.666;2023-04-24T09:48:37;6.40;;;3.50;;
5553;SDS011;2800;49.528;8.666;2023-04-24T09:51:05;6.60;;;3.80;;
5553;SDS011;2800;49.528;8.666;2023-04-24T09:53:32;6.47;;;3.73;;
5553;SDS011;2800;49.528;8.666;2023-04-24T09:56:10;6.17;;;3.40;;
5553;SDS011;2800;49.528;8.666;2023-04-24T09:58:37;5.97;;;3.17;;
5553;SDS011;2800;49.528;8.666;2023-04-24T10:01:02;5.73;;;3.50;;
5553;SDS011;2800;49.528;8.666;2023-04-24T10:03:32;5.80;;;3.13;;
5553;SDS011;2800;49.528;8.666;2023-04-24T10:06:01;5.20;;;3.03;;
5553;SDS011;2800;49.528;8.666;2023-04-24T10:08:33;6.43;;;4.27;;
5553;SDS011;2800;49.528;8.666;2023-04-24T10:11:00;7.30;;;4.03;;
5553;SDS011;2800;49.528;8.666;2023-04-24T10:13:26;8.70;;;4.03;;
5553;SDS011;2800;49.528;8.666;2023-04-24T10:15:53;6.20;;;3.73;;
5553;SDS011;2800;49.528;8.666;2023-04-24T10:18:18;6.27;;;3.70;;
5553;SDS011;2800;49.528;8.666;2023-04-24T10:20:46;6.67;;;3.60;;
5553;SDS011;2800;49.528;8.666;2023-04-24T10:23:12;7.20;;;3.70;;
5553;SDS011;2800;49.528;8.666;2023-04-24T10:25:38;6.03;;;3.20;;
5553;SDS011;2800;49.528;8.666;2023-04-24T10:28:03;8.13;;;3.30;;
5553;SDS011;2800;49.528;8.666;2023-04-24T10:30:33;5.67;;;3.10;;
5553;SDS011;2800;49.528;8.666;2023-04-24T10:33:03;5.23;;;3.30;;
5553;SDS011;2800;49.528;8.666;2023-04-24T10:35:30;7.57;;;3.00;;
5553;SDS011;2800;49.528;8.666;2023-04-24T10:37:58;4.90;;;2.83;;
5553;SDS011;2800;49.528;8.666;2023-04-24T10:40:34;8.27;;;3.47;;
5553;SDS011;2800;49.528;8.666;2023-04-24T10:43:07;5.27;;;3.00;;
5553;SDS011;2800;49.528;8.666;2023-04-24T10:45:35;4.90;;;2.77;;
5553;SDS011;2800;49.528;8.666;2023-04-24T10:48:02;14.07;;;3.07;;
5553;SDS011;2800;49.528;8.666;2023-04-24T10:50:29;5.73;;;2.50;;
5553;SDS011;2800;49.528;8.666;2023-04-24T10:53:11;6.00;;;3.20;;
5553;SDS011;2800;49.528;8.666;2023-04-24T10:55:43;4.80;;;2.60;;
5553;SDS011;2800;49.528;8.666;2023-04-24T10:58:16;5.20;;;3.20;;
5553;SDS011;2800;49.528;8.666;2023-04-24T11:00:55;5.30;;;2.90;;
5553;SDS011;2800;49.528;8.666;2023-04-24T11:03:31;6.30;;;3.20;;
5553;SDS011;2800;49.528;8.666;2023-04-24T11:06:08;6.87;;;2.80;;
5553;SDS011;2800;49.528;8.666;2023-04-24T11:08:38;4.87;;;2.97;;
5553;SDS011;2800;49.528;8.666;2023-04-24T11:16:20;7.87;;;3.87;;
5553;SDS011;2800;49.528;8.666;2023-04-24T11:19:00;5.73;;;3.53;;
5553;SDS011;2800;49.528;8.666;2023-04-24T11:21:41;5.93;;;4.03;;
5553;SDS011;2800;49.528;8.666;2023-04-24T11:26:48;7.20;;;3.50;;
5553;SDS011;2800;49.528;8.666;2023-04-24T11:29:15;7.20;;;4.17;;
5553;SDS011;2800;49.528;8.666;2023-04-24T11:31:44;8.97;;;4.47;;
5553;SDS011;2800;49.528;8.666;2023-04-24T11:34:14;6.90;;;4.00;;
5553;SDS011;2800;49.528;8.666;2023-04-24T11:36:44;5.93;;;3.50;;
5553;SDS011;2800;49.528;8.666;2023-04-24T11:39:11;7.43;;;4.00;;
5553;SDS011;2800;49.528;8.666;2023-04-24T11:41:37;6.03;;;3.97;;
5553;SDS011;2800;49.528;8.666;2023-04-24T11:44:03;6.63;;;4.40;;
5553;SDS011;2800;49.528;8.666;2023-04-24T11:46:31;7.87;;;4.40;;
5553;SDS011;2800;49.528;8.666;2023-04-24T11:48:58;5.97;;;4.07;;
5553;SDS011;2800;49.528;8.666;2023-04-24T11:51:24;8.37;;;4.33;;
5553;SDS011;2800;49.528;8.666;2023-04-24T11:53:51;5.93;;;3.83;;
5553;SDS011;2800;49.528;8.666;2023-04-24T11:56:18;7.87;;;4.40;;
5553;SDS011;2800;49.528;8.666;2023-04-24T11:58:44;10.90;;;4.70;;
5553;SDS011;2800;49.528;8.666;2023-04-24T12:01:10;6.20;;;4.13;;
5553;SDS011;2800;49.528;8.666;2023-04-24T12:03:36;6.67;;;4.10;;
5553;SDS011;2800;49.528;8.666;2023-04-24T12:06:05;8.70;;;4.60;;
5553;SDS011;2800;49.528;8.666;2023-04-24T12:08:34;6.90;;;4.37;;
5553;SDS011;2800;49.528;8.666;2023-04-24T12:11:00;9.77;;;4.07;;
5553;SDS011;2800;49.528;8.666;2023-04-24T12:13:27;11.07;;;5.30;;
5553;SDS011;2800;49.528;8.666;2023-04-24T12:15:53;8.63;;;5.60;;
5553;SDS011;2800;49.528;8.666;2023-04-24T12:18:18;11.50;;;5.27;;
5553;SDS011;2800;49.528;8.666;2023-04-24T12:20:47;8.13;;;5.93;;
5553;SDS011;2800;49.528;8.666;2023-04-24T12:23:13;7.67;;;4.47;;
5553;SDS011;2800;49.528;8.666;2023-04-24T12:25:38;7.37;;;4.20;;
5553;SDS011;2800;49.528;8.666;2023-04-24T12:30:30;6.90;;;3.97;;
5553;SDS011;2800;49.528;8.666;2023-04-24T12:32:58;7.73;;;4.33;;
5553;SDS011;2800;49.528;8.666;2023-04-24T12:35:25;7.77;;;4.20;;
5553;SDS011;2800;49.528;8.666;2023-04-24T12:37:52;10.40;;;4.53;;
5553;SDS011;2800;49.528;8.666;2023-04-24T12:40:19;6.80;;;4.50;;
5553;SDS011;2800;49.528;8.666;2023-04-24T12:42:46;6.60;;;4.60;;
5553;SDS011;2800;49.528;8.666;2023-04-24T12:45:16;9.17;;;4.40;;
5553;SDS011;2800;49.528;8.666;2023-04-24T12:47:43;9.00;;;4.73;;
5553;SDS011;2800;49.528;8.666;2023-04-24T12:50:11;8.40;;;4.77;;
5553;SDS011;2800;49.528;8.666;2023-04-24T12:52:38;10.57;;;4.60;;
5553;SDS011;2800;49.528;8.666;2023-04-24T12:55:04;10.17;;;5.33;;
5553;SDS011;2800;49.528;8.666;2023-04-24T12:57:33;9.30;;;4.70;;
5553;SDS011;2800;49.528;8.666;2023-04-24T12:59:59;7.90;;;4.23;;
5553;SDS011;2800;49.528;8.666;2023-04-24T13:02:26;6.47;;;4.17;;
5553;SDS011;2800;49.528;8.666;2023-04-24T13:04:53;8.17;;;4.07;;
5553;SDS011;2800;49.528;8.666;2023-04-24T13:07:19;12.03;;;4.70;;
5553;SDS011;2800;49.528;8.666;2023-04-24T13:09:45;8.80;;;4.73;;
5553;SDS011;2800;49.528;8.666;2023-04-24T13:12:12;10.70;;;4.97;;
5553;SDS011;2800;49.528;8.666;2023-04-24T13:14:38;9.03;;;4.23;;
5553;SDS011;2800;49.528;8.666;2023-04-24T13:17:04;7.10;;;4.37;;
5553;SDS011;2800;49.528;8.666;2023-04-24T13:19:34;7.83;;;4.23;;
5553;SDS011;2800;49.528;8.666;2023-04-24T13:22:04;7.63;;;4.90;;
5553;SDS011;2800;49.528;8.666;2023-04-24T13:24:30;12.37;;;5.27;;
5553;SDS011;2800;49.528;8.666;2023-04-24T13:26:56;9.80;;;4.60;;
5553;SDS011;2800;49.528;8.666;2023-04-24T13:29:22;7.17;;;4.13;;
5553;SDS011;2800;49.528;8.666;2023-04-24T13:31:49;8.07;;;4.57;;
5553;SDS011;2800;49.528;8.666;2023-04-24T13:34:16;8.07;;;4.20;;
5553;SDS011;2800;49.528;8.666;2023-04-24T13:36:42;9.80;;;4.80;;
5553;SDS011;2800;49.528;8.666;2023-04-24T13:39:07;9.90;;;4.37;;
5553;SDS011;2800;49.528;8.666;2023-04-24T13:41:33;8.17;;;4.20;;
5553;SDS011;2800;49.528;8.666;2023-04-24T13:43:59;7.00;;;4.10;;
5553;SDS011;2800;49.528;8.666;2023-04-24T13:46:25;11.40;;;4.40;;
5553;SDS011;2800;49.528;8.666;2023-04-24T13:48:51;7.87;;;4.60;;
5553;SDS011;2800;49.528;8.666;2023-04-24T13:51:17;9.07;;;4.63;;
5553;SDS011;2800;49.528;8.666;2023-04-24T13:53:42;6.63;;;3.80;;
5553;SDS011;2800;49.528;8.666;2023-04-24T13:56:08;8.67;;;4.20;;
5553;SDS011;2800;49.528;8.666;2023-04-24T13:58:34;9.17;;;4.70;;
5553;SDS011;2800;49.528;8.666;2023-04-24T14:01:02;8.70;;;4.27;;
5553;SDS011;2800;49.528;8.666;2023-04-24T14:03:28;8.63;;;4.30;;
5553;SDS011;2800;49.528;8.666;2023-04-24T14:05:53;8.03;;;4.57;;
5553;SDS011;2800;49.528;8.666;2023-04-24T14:08:19;7.20;;;4.40;;
5553;SDS011;2800;49.528;8.666;2023-04-24T14:10:44;10.60;;;4.97;;
5553;SDS011;2800;49.528;8.666;2023-04-24T14:13:10;9.27;;;6.13;;
5553;SDS011;2800;49.528;8.666;2023-04-24T14:15:36;11.97;;;7.20;;
5553;SDS011;2800;49.528;8.666;2023-04-24T14:18:02;8.67;;;5.23;;
5553;SDS011;2800;49.528;8.666;2023-04-24T14:20:28;7.80;;;4.87;;
5553;SDS011;2800;49.528;8.666;2023-04-24T14:22:53;6.90;;;4.60;;
5553;SDS011;2800;49.528;8.666;2023-04-24T14:25:19;6.80;;;4.27;;
5553;SDS011;2800;49.528;8.666;2023-04-24T14:27:45;7.80;;;5.13;;
5553;SDS011;2800;49.528;8.666;2023-04-24T14:30:11;7.53;;;5.00;;
5553;SDS011;2800;49.528;8.666;2023-04-24T14:32:38;8.17;;;4.73;;
5553;SDS011;2800;49.528;8.666;2023-04-24T14:35:04;8.07;;;4.73;;
5553;SDS011;2800;49.528;8.666;2023-04-24T14:37:31;14.27;;;5.80;;
5553;SDS011;2800;49.528;8.666;2023-04-24T14:39:56;7.73;;;4.43;;
5553;SDS011;2800;49.528;8.666;2023-04-24T14:42:22;8.00;;;4.30;;
5553;SDS011;2800;49.528;8.666;2023-04-24T14:44:47;8.27;;;4.90;;
5553;SDS011;2800;49.528;8.666;2023-04-24T14:47:13;10.43;;;5.10;;
5553;SDS011;2800;49.528;8.666;2023-04-24T14:49:39;10.80;;;5.63;;
5553;SDS011;2800;49.528;8.666;2023-04-24T14:52:04;6.13;;;4.40;;
5553;SDS011;2800;49.528;8.666;2023-04-24T14:54:30;8.47;;;4.60;;
5553;SDS011;2800;49.528;8.666;2023-04-24T14:56:55;7.20;;;4.13;;
5553;SDS011;2800;49.528;8.666;2023-04-24T14:59:24;7.57;;;4.17;;
5553;SDS011;2800;49.528;8.666;2023-04-24T15:01:49;7.70;;;3.80;;
5553;SDS011;2800;49.528;8.666;2023-04-24T15:04:16;7.80;;;4.10;;
5553;SDS011;2800;49.528;8.666;2023-04-24T15:06:42;8.80;;;3.93;;
5553;SDS011;2800;49.528;8.666;2023-04-24T15:09:07;6.60;;;4.30;;
5553;SDS011;2800;49.528;8.666;2023-04-24T15:11:33;7.53;;;4.90;;
5553;SDS011;2800;49.528;8.666;2023-04-24T15:13:58;10.60;;;5.40;;
5553;SDS011;2800;49.528;8.666;2023-04-24T15:16:24;6.23;;;3.90;;
5553;SDS011;2800;49.528;8.666;2023-04-24T15:18:50;8.00;;;4.83;;
5553;SDS011;2800;49.528;8.666;2023-04-24T15:21:15;11.43;;;6.90;;